sensor_id;sensor_type;location;lat;lon;timestamp;P1;durP1;ratioP1;P2;durP2;ratioP2
7398;SDS011;3740;50.700;7.184;2022-11-04T00:01:23;1.27;;;1.17;;
7398;SDS011;3740;50.700;7.184;2022-11-04T00:03:49;0.80;;;0.80;;
7398;SDS011;3740;50.700;7.184;2022-11-04T00:06:16;1.00;;;1.00;;
7398;SDS011;3740;50.700;7.184;2022-11-04T00:08:41;1.00;;;0.97;;
7398;SDS011;3740;50.700;7.184;2022-11-04T00:11:09;0.80;;;0.80;;
7398;SDS011;3740;50.700;7.184;2022-11-04T00:13:53;0.70;;;0.70;;
7398;SDS011;3740;50.700;7.184;2022-11-04T00:16:19;1.10;;;1.00;;
7398;SDS011;3740;50.700;7.184;2022-11-04T00:19:03;1.60;;;0.97;;
7398;SDS011;3740;50.700;7.184;2022-11-04T00:21:29;0.80;;;0.80;;
7398;SDS011;3740;50.700;7.184;2022-11-04T00:24:13;1.43;;;1.20;;
7398;SDS011;3740;50.700;7.184;2022-11-04T00:26:58;1.23;;;1.13;;
7398;SDS011;3740;50.700;7.184;2022-11-04T00:29:43;1.70;;;0.90;;
7398;SDS011;3740;50.700;7.184;2022-11-04T00:32:09;1.13;;;1.07;;
7398;SDS011;3740;50.700;7.184;2022-11-04T00:34:53;1.27;;;1.17;;
7398;SDS011;3740;50.700;7.184;2022-11-04T00:37:29;1.00;;;1.00;;
7398;SDS011;3740;50.700;7.184;2022-11-04T00:39:54;1.20;;;1.10;;
7398;SDS011;3740;50.700;7.184;2022-11-04T00:42:20;2.20;;;1.00;;
7398;SDS011;3740;50.700;7.184;2022-11-04T00:44:46;1.47;;;0.90;;
7398;SDS011;3740;50.700;7.184;2022-11-04T00:47:11;0.60;;;0.60;;
7398;SDS011;3740;50.700;7.184;2022-11-04T00:49:37;2.03;;;1.30;;
7398;SDS011;3740;50.700;7.184;2022-11-04T00:52:02;1.40;;;1.00;;
7398;SDS011;3740;50.700;7.184;2022-11-04T00:54:29;1.47;;;0.73;;
7398;SDS011;3740;50.700;7.184;2022-11-04T00:56:54;1.00;;;1.00;;
7398;SDS011;3740;50.700;7.184;2022-11-04T00:59:20;1.30;;;1.00;;
7398;SDS011;3740;50.700;7.184;2022-11-04T01:01:46;1.43;;;0.80;;
7398;SDS011;3740;50.700;7.184;2022-11-04T01:04:11;1.13;;;0.73;;
7398;SDS011;3740;50.700;7.184;2022-11-04T01:06:37;1.37;;;1.10;;
7398;SDS011;3740;50.700;7.184;2022-11-04T01:09:04;0.80;;;0.80;;
7398;SDS011;3740;50.700;7.184;2022-11-04T01:11:32;1.60;;;1.30;;
7398;SDS011;3740;50.700;7.184;2022-11-04T01:13:58;1.73;;;1.63;;
7398;SDS011;3740;50.700;7.184;2022-11-04T01:16:24;1.70;;;1.60;;
7398;SDS011;3740;50.700;7.184;2022-11-04T01:18:51;1.63;;;1.53;;
7398;SDS011;3740;50.700;7.184;2022-11-04T01:21:16;1.80;;;1.70;;
7398;SDS011;3740;50.700;7.184;2022-11-04T01:23:43;2.97;;;1.57;;
7398;SDS011;3740;50.700;7.184;2022-11-04T01:26:13;0.90;;;0.90;;
7398;SDS011;3740;50.700;7.184;2022-11-04T01:28:40;0.97;;;0.97;;
7398;SDS011;3740;50.700;7.184;2022-11-04T01:31:17;1.47;;;1.30;;
7398;SDS011;3740;50.700;7.184;2022-11-04T01:33:45;1.07;;;1.07;;
7398;SDS011;3740;50.700;7.184;2022-11-04T01:36:11;1.23;;;1.13;;
7398;SDS011;3740;50.700;7.184;2022-11-04T01:38:37;1.60;;;1.00;;
7398;SDS011;3740;50.700;7.184;2022-11-04T01:41:03;1.17;;;1.07;;
7398;SDS011;3740;50.700;7.184;2022-11-04T01:43:41;2.07;;;1.10;;
7398;SDS011;3740;50.700;7.184;2022-11-04T01:48:53;1.20;;;1.20;;
7398;SDS011;3740;50.700;7.184;2022-11-04T01:51:22;1.43;;;1.23;;
7398;SDS011;3740;50.700;7.184;2022-11-04T01:53:48;1.80;;;1.30;;
7398;SDS011;3740;50.700;7.184;2022-11-04T01:56:16;1.10;;;1.00;;
7398;SDS011;3740;50.700;7.184;2022-11-04T01:58:45;1.10;;;1.00;;
7398;SDS011;3740;50.700;7.184;2022-11-04T02:01:15;1.30;;;0.97;;
7398;SDS011;3740;50.700;7.184;2022-11-04T02:06:17;1.13;;;1.03;;
7398;SDS011;3740;50.700;7.184;2022-11-04T02:08:45;1.50;;;1.40;;
7398;SDS011;3740;50.700;7.184;2022-11-04T02:11:11;1.90;;;1.60;;
7398;SDS011;3740;50.700;7.184;2022-11-04T02:13:57;2.13;;;1.60;;
7398;SDS011;3740;50.700;7.184;2022-11-04T02:16:26;1.83;;;1.70;;
7398;SDS011;3740;50.700;7.184;2022-11-04T02:22:10;2.43;;;2.10;;
7398;SDS011;3740;50.700;7.184;2022-11-04T02:27:47;2.70;;;1.80;;
7398;SDS011;3740;50.700;7.184;2022-11-04T02:30:23;1.80;;;1.63;;
7398;SDS011;3740;50.700;7.184;2022-11-04T02:33:13;1.63;;;1.50;;
7398;SDS011;3740;50.700;7.184;2022-11-04T02:35:56;1.83;;;1.27;;
7398;SDS011;3740;50.700;7.184;2022-11-04T02:38:53;2.17;;;1.13;;
7398;SDS011;3740;50.700;7.184;2022-11-04T02:44:15;2.30;;;1.53;;
7398;SDS011;3740;50.700;7.184;2022-11-04T02:46:48;3.33;;;1.80;;
7398;SDS011;3740;50.700;7.184;2022-11-04T02:52:18;2.97;;;1.70;;
7398;SDS011;3740;50.700;7.184;2022-11-04T02:54:56;2.27;;;1.77;;
7398;SDS011;3740;50.700;7.184;2022-11-04T02:57:29;2.43;;;1.50;;
7398;SDS011;3740;50.700;7.184;2022-11-04T03:00:00;2.23;;;1.37;;
7398;SDS011;3740;50.700;7.184;2022-11-04T03:05:02;4.10;;;1.50;;
7398;SDS011;3740;50.700;7.184;2022-11-04T03:07:32;2.87;;;1.30;;
7398;SDS011;3740;50.700;7.184;2022-11-04T03:10:01;2.03;;;1.20;;
7398;SDS011;3740;50.700;7.184;2022-11-04T03:12:37;1.87;;;1.40;;
7398;SDS011;3740;50.700;7.184;2022-11-04T03:15:09;2.23;;;1.37;;
7398;SDS011;3740;50.700;7.184;2022-11-04T03:20:57;2.47;;;1.57;;
7398;SDS011;3740;50.700;7.184;2022-11-04T03:23:27;2.60;;;1.30;;
7398;SDS011;3740;50.700;7.184;2022-11-04T03:25:55;2.90;;;1.83;;
7398;SDS011;3740;50.700;7.184;2022-11-04T03:28:32;2.43;;;1.47;;
7398;SDS011;3740;50.700;7.184;2022-11-04T03:31:22;1.80;;;1.70;;
7398;SDS011;3740;50.700;7.184;2022-11-04T03:33:58;2.40;;;1.77;;
7398;SDS011;3740;50.700;7.184;2022-11-04T03:36:24;2.60;;;1.70;;
7398;SDS011;3740;50.700;7.184;2022-11-04T03:38:59;2.53;;;1.63;;
7398;SDS011;3740;50.700;7.184;2022-11-04T03:41:29;2.97;;;1.50;;
7398;SDS011;3740;50.700;7.184;2022-11-04T03:44:17;2.30;;;1.70;;
7398;SDS011;3740;50.700;7.184;2022-11-04T03:46:43;1.67;;;1.40;;
7398;SDS011;3740;50.700;7.184;2022-11-04T03:49:09;2.17;;;1.53;;
7398;SDS011;3740;50.700;7.184;2022-11-04T03:51:36;2.70;;;1.50;;
7398;SDS011;3740;50.700;7.184;2022-11-04T03:54:01;1.93;;;1.50;;
7398;SDS011;3740;50.700;7.184;2022-11-04T03:56:36;3.57;;;1.97;;
7398;SDS011;3740;50.700;7.184;2022-11-04T03:59:18;2.60;;;1.60;;
7398;SDS011;3740;50.700;7.184;2022-11-04T04:01:58;7.00;;;1.80;;
7398;SDS011;3740;50.700;7.184;2022-11-04T04:04:39;4.70;;;1.83;;
7398;SDS011;3740;50.700;7.184;2022-11-04T04:07:16;4.37;;;2.03;;
7398;SDS011;3740;50.700;7.184;2022-11-04T04:09:50;2.60;;;1.87;;
7398;SDS011;3740;50.700;7.184;2022-11-04T04:12:59;2.07;;;1.87;;
7398;SDS011;3740;50.700;7.184;2022-11-04T04:15:32;2.20;;;2.00;;
7398;SDS011;3740;50.700;7.184;2022-11-04T04:18:06;4.63;;;2.07;;
7398;SDS011;3740;50.700;7.184;2022-11-04T04:20:36;2.63;;;1.80;;
7398;SDS011;3740;50.700;7.184;2022-11-04T04:23:04;2.73;;;1.70;;
7398;SDS011;3740;50.700;7.184;2022-11-04T04:25:53;3.23;;;1.80;;
7398;SDS011;3740;50.700;7.184;2022-11-04T04:28:40;3.93;;;2.20;;
7398;SDS011;3740;50.700;7.184;2022-11-04T04:31:07;3.53;;;2.00;;
7398;SDS011;3740;50.700;7.184;2022-11-04T04:33:35;3.90;;;2.60;;
7398;SDS011;3740;50.700;7.184;2022-11-04T04:36:02;5.53;;;2.50;;
7398;SDS011;3740;50.700;7.184;2022-11-04T04:38:30;4.23;;;2.50;;
7398;SDS011;3740;50.700;7.184;2022-11-04T04:41:19;5.73;;;2.37;;
7398;SDS011;3740;50.700;7.184;2022-11-04T04:44:21;4.10;;;2.80;;
7398;SDS011;3740;50.700;7.184;2022-11-04T04:47:08;3.57;;;2.60;;
7398;SDS011;3740;50.700;7.184;2022-11-04T04:49:47;4.20;;;2.40;;
7398;SDS011;3740;50.700;7.184;2022-11-04T04:52:21;4.83;;;2.03;;
7398;SDS011;3740;50.700;7.184;2022-11-04T04:54:49;4.53;;;2.30;;
7398;SDS011;3740;50.700;7.184;2022-11-04T04:57:14;3.30;;;1.87;;
7398;SDS011;3740;50.700;7.184;2022-11-04T04:59:40;5.90;;;1.80;;
7398;SDS011;3740;50.700;7.184;2022-11-04T05:02:05;3.30;;;1.97;;
7398;SDS011;3740;50.700;7.184;2022-11-04T05:04:31;4.10;;;2.07;;
7398;SDS011;3740;50.700;7.184;2022-11-04T05:06:56;2.93;;;2.10;;
7398;SDS011;3740;50.700;7.184;2022-11-04T05:09:22;3.03;;;2.00;;
7398;SDS011;3740;50.700;7.184;2022-11-04T05:11:47;2.70;;;1.97;;
7398;SDS011;3740;50.700;7.184;2022-11-04T05:14:13;3.27;;;2.30;;
7398;SDS011;3740;50.700;7.184;2022-11-04T05:16:39;2.57;;;1.90;;
7398;SDS011;3740;50.700;7.184;2022-11-04T05:19:04;2.23;;;1.90;;
7398;SDS011;3740;50.700;7.184;2022-11-04T05:21:30;2.23;;;1.77;;
7398;SDS011;3740;50.700;7.184;2022-11-04T05:23:56;3.00;;;2.40;;
7398;SDS011;3740;50.700;7.184;2022-11-04T05:26:22;2.70;;;2.20;;
7398;SDS011;3740;50.700;7.184;2022-11-04T05:28:47;3.43;;;2.03;;
7398;SDS011;3740;50.700;7.184;2022-11-04T05:31:13;5.00;;;2.23;;
7398;SDS011;3740;50.700;7.184;2022-11-04T05:33:38;2.60;;;1.97;;
7398;SDS011;3740;50.700;7.184;2022-11-04T05:36:08;3.30;;;1.97;;
7398;SDS011;3740;50.700;7.184;2022-11-04T05:38:35;3.13;;;2.07;;
7398;SDS011;3740;50.700;7.184;2022-11-04T05:41:01;4.47;;;2.47;;
7398;SDS011;3740;50.700;7.184;2022-11-04T05:43:27;4.67;;;2.80;;
7398;SDS011;3740;50.700;7.184;2022-11-04T05:45:53;4.40;;;2.47;;
7398;SDS011;3740;50.700;7.184;2022-11-04T05:48:18;4.10;;;2.83;;
7398;SDS011;3740;50.700;7.184;2022-11-04T05:50:44;3.73;;;2.87;;
7398;SDS011;3740;50.700;7.184;2022-11-04T05:53:10;4.77;;;3.43;;
7398;SDS011;3740;50.700;7.184;2022-11-04T05:55:36;3.87;;;2.93;;
7398;SDS011;3740;50.700;7.184;2022-11-04T05:58:01;3.73;;;2.70;;
7398;SDS011;3740;50.700;7.184;2022-11-04T06:00:27;4.13;;;2.80;;
7398;SDS011;3740;50.700;7.184;2022-11-04T06:02:53;4.40;;;2.70;;
7398;SDS011;3740;50.700;7.184;2022-11-04T06:05:21;4.37;;;2.47;;
7398;SDS011;3740;50.700;7.184;2022-11-04T06:07:48;3.27;;;2.57;;
7398;SDS011;3740;50.700;7.184;2022-11-04T06:10:18;5.13;;;2.60;;
7398;SDS011;3740;50.700;7.184;2022-11-04T06:12:44;2.83;;;2.23;;
7398;SDS011;3740;50.700;7.184;2022-11-04T06:15:10;3.27;;;2.40;;
7398;SDS011;3740;50.700;7.184;2022-11-04T06:17:36;3.20;;;2.80;;
7398;SDS011;3740;50.700;7.184;2022-11-04T06:20:04;4.87;;;2.80;;
7398;SDS011;3740;50.700;7.184;2022-11-04T06:22:31;3.53;;;2.80;;
7398;SDS011;3740;50.700;7.184;2022-11-04T06:24:57;5.80;;;2.87;;
7398;SDS011;3740;50.700;7.184;2022-11-04T06:27:22;3.70;;;3.30;;
7398;SDS011;3740;50.700;7.184;2022-11-04T06:29:48;5.37;;;3.77;;
7398;SDS011;3740;50.700;7.184;2022-11-04T06:32:14;6.03;;;4.40;;
7398;SDS011;3740;50.700;7.184;2022-11-04T06:34:42;8.70;;;4.70;;
7398;SDS011;3740;50.700;7.184;2022-11-04T06:37:08;8.63;;;5.07;;
7398;SDS011;3740;50.700;7.184;2022-11-04T06:39:34;6.07;;;4.47;;
7398;SDS011;3740;50.700;7.184;2022-11-04T06:42:00;5.50;;;4.93;;
7398;SDS011;3740;50.700;7.184;2022-11-04T06:44:26;7.40;;;5.33;;
7398;SDS011;3740;50.700;7.184;2022-11-04T06:46:52;5.17;;;4.23;;
7398;SDS011;3740;50.700;7.184;2022-11-04T06:49:19;6.07;;;5.47;;
7398;SDS011;3740;50.700;7.184;2022-11-04T06:51:47;8.20;;;7.40;;
7398;SDS011;3740;50.700;7.184;2022-11-04T06:54:14;7.57;;;5.83;;
7398;SDS011;3740;50.700;7.184;2022-11-04T06:56:40;6.60;;;4.83;;
7398;SDS011;3740;50.700;7.184;2022-11-04T06:59:06;4.27;;;3.80;;
7398;SDS011;3740;50.700;7.184;2022-11-04T07:01:34;5.87;;;3.57;;
7398;SDS011;3740;50.700;7.184;2022-11-04T07:04:01;6.97;;;4.13;;
7398;SDS011;3740;50.700;7.184;2022-11-04T07:06:29;6.23;;;3.43;;
7398;SDS011;3740;50.700;7.184;2022-11-04T07:08:56;5.47;;;3.97;;
7398;SDS011;3740;50.700;7.184;2022-11-04T07:11:23;8.43;;;4.87;;
7398;SDS011;3740;50.700;7.184;2022-11-04T07:13:50;7.07;;;4.83;;
7398;SDS011;3740;50.700;7.184;2022-11-04T07:16:16;7.87;;;4.90;;
7398;SDS011;3740;50.700;7.184;2022-11-04T07:18:43;7.50;;;4.60;;
7398;SDS011;3740;50.700;7.184;2022-11-04T07:21:09;5.37;;;4.17;;
7398;SDS011;3740;50.700;7.184;2022-11-04T07:23:35;6.73;;;3.80;;
7398;SDS011;3740;50.700;7.184;2022-11-04T07:26:01;5.17;;;3.23;;
7398;SDS011;3740;50.700;7.184;2022-11-04T07:28:29;6.23;;;3.57;;
7398;SDS011;3740;50.700;7.184;2022-11-04T07:30:58;7.97;;;3.70;;
7398;SDS011;3740;50.700;7.184;2022-11-04T07:33:25;13.40;;;4.50;;
7398;SDS011;3740;50.700;7.184;2022-11-04T07:35:51;12.20;;;4.67;;
7398;SDS011;3740;50.700;7.184;2022-11-04T07:38:18;7.10;;;4.23;;
7398;SDS011;3740;50.700;7.184;2022-11-04T07:40:45;7.33;;;3.27;;
7398;SDS011;3740;50.700;7.184;2022-11-04T07:43:10;6.17;;;3.20;;
7398;SDS011;3740;50.700;7.184;2022-11-04T07:45:36;5.23;;;3.17;;
7398;SDS011;3740;50.700;7.184;2022-11-04T07:48:02;7.00;;;4.03;;
7398;SDS011;3740;50.700;7.184;2022-11-04T07:50:27;5.50;;;3.50;;
7398;SDS011;3740;50.700;7.184;2022-11-04T07:52:55;5.13;;;3.00;;
7398;SDS011;3740;50.700;7.184;2022-11-04T07:55:20;6.20;;;2.90;;
7398;SDS011;3740;50.700;7.184;2022-11-04T07:57:46;5.10;;;2.73;;
7398;SDS011;3740;50.700;7.184;2022-11-04T08:00:13;4.67;;;2.60;;
7398;SDS011;3740;50.700;7.184;2022-11-04T08:02:40;6.33;;;3.00;;
7398;SDS011;3740;50.700;7.184;2022-11-04T08:05:11;8.20;;;3.63;;
7398;SDS011;3740;50.700;7.184;2022-11-04T08:07:37;9.70;;;3.87;;
7398;SDS011;3740;50.700;7.184;2022-11-04T08:10:03;6.03;;;3.20;;
7398;SDS011;3740;50.700;7.184;2022-11-04T08:12:29;6.53;;;3.20;;
7398;SDS011;3740;50.700;7.184;2022-11-04T08:14:56;6.30;;;2.97;;
7398;SDS011;3740;50.700;7.184;2022-11-04T08:17:22;5.10;;;2.87;;
7398;SDS011;3740;50.700;7.184;2022-11-04T08:19:48;4.63;;;2.77;;
7398;SDS011;3740;50.700;7.184;2022-11-04T08:22:13;6.23;;;3.20;;
7398;SDS011;3740;50.700;7.184;2022-11-04T08:24:40;6.13;;;3.20;;
7398;SDS011;3740;50.700;7.184;2022-11-04T08:27:06;5.70;;;3.30;;
7398;SDS011;3740;50.700;7.184;2022-11-04T08:29:32;5.00;;;2.93;;
7398;SDS011;3740;50.700;7.184;2022-11-04T08:31:58;6.17;;;3.40;;
7398;SDS011;3740;50.700;7.184;2022-11-04T08:34:23;6.17;;;3.10;;
7398;SDS011;3740;50.700;7.184;2022-11-04T08:36:49;6.53;;;2.80;;
7398;SDS011;3740;50.700;7.184;2022-11-04T08:39:17;5.73;;;2.60;;
7398;SDS011;3740;50.700;7.184;2022-11-04T08:41:43;6.60;;;3.03;;
7398;SDS011;3740;50.700;7.184;2022-11-04T08:44:09;5.83;;;2.87;;
7398;SDS011;3740;50.700;7.184;2022-11-04T08:46:39;4.70;;;2.60;;
7398;SDS011;3740;50.700;7.184;2022-11-04T08:49:07;3.93;;;2.80;;
7398;SDS011;3740;50.700;7.184;2022-11-04T08:51:33;5.80;;;2.53;;
7398;SDS011;3740;50.700;7.184;2022-11-04T08:54:00;5.53;;;2.20;;
7398;SDS011;3740;50.700;7.184;2022-11-04T08:56:27;5.70;;;2.60;;
7398;SDS011;3740;50.700;7.184;2022-11-04T08:58:54;4.73;;;2.57;;
7398;SDS011;3740;50.700;7.184;2022-11-04T09:01:22;4.43;;;2.60;;
7398;SDS011;3740;50.700;7.184;2022-11-04T09:03:49;5.43;;;2.53;;
7398;SDS011;3740;50.700;7.184;2022-11-04T09:06:19;3.30;;;2.03;;
7398;SDS011;3740;50.700;7.184;2022-11-04T09:08:50;5.07;;;2.07;;
7398;SDS011;3740;50.700;7.184;2022-11-04T09:11:16;4.67;;;2.23;;
7398;SDS011;3740;50.700;7.184;2022-11-04T09:13:42;3.87;;;2.07;;
7398;SDS011;3740;50.700;7.184;2022-11-04T09:16:09;5.03;;;2.60;;
7398;SDS011;3740;50.700;7.184;2022-11-04T09:18:36;4.43;;;2.23;;
7398;SDS011;3740;50.700;7.184;2022-11-04T09:21:03;3.90;;;2.17;;
7398;SDS011;3740;50.700;7.184;2022-11-04T09:23:31;3.50;;;2.07;;
7398;SDS011;3740;50.700;7.184;2022-11-04T09:25:57;5.67;;;2.10;;
7398;SDS011;3740;50.700;7.184;2022-11-04T09:28:27;4.70;;;2.23;;
7398;SDS011;3740;50.700;7.184;2022-11-04T09:30:53;5.50;;;1.93;;
7398;SDS011;3740;50.700;7.184;2022-11-04T09:33:18;5.00;;;2.43;;
7398;SDS011;3740;50.700;7.184;2022-11-04T09:35:52;3.73;;;2.53;;
7398;SDS011;3740;50.700;7.184;2022-11-04T09:38:22;7.87;;;2.87;;
7398;SDS011;3740;50.700;7.184;2022-11-04T09:40:48;3.47;;;2.43;;
7398;SDS011;3740;50.700;7.184;2022-11-04T09:43:27;5.40;;;2.50;;
7398;SDS011;3740;50.700;7.184;2022-11-04T09:46:07;3.90;;;1.93;;
7398;SDS011;3740;50.700;7.184;2022-11-04T09:48:37;4.60;;;2.17;;
7398;SDS011;3740;50.700;7.184;2022-11-04T09:51:13;3.20;;;2.07;;
7398;SDS011;3740;50.700;7.184;2022-11-04T09:56:21;3.77;;;2.50;;
7398;SDS011;3740;50.700;7.184;2022-11-04T09:58:48;5.33;;;2.60;;
7398;SDS011;3740;50.700;7.184;2022-11-04T10:09:39;4.47;;;2.33;;
7398;SDS011;3740;50.700;7.184;2022-11-04T10:15:10;4.57;;;2.50;;
7398;SDS011;3740;50.700;7.184;2022-11-04T10:17:47;6.27;;;2.60;;
7398;SDS011;3740;50.700;7.184;2022-11-04T10:23:32;3.67;;;2.33;;
7398;SDS011;3740;50.700;7.184;2022-11-04T10:26:09;4.67;;;2.17;;
7398;SDS011;3740;50.700;7.184;2022-11-04T10:28:42;4.13;;;2.30;;
7398;SDS011;3740;50.700;7.184;2022-11-04T10:31:15;5.57;;;2.30;;
7398;SDS011;3740;50.700;7.184;2022-11-04T10:33:44;5.50;;;2.37;;
7398;SDS011;3740;50.700;7.184;2022-11-04T10:36:14;3.83;;;2.33;;
7398;SDS011;3740;50.700;7.184;2022-11-04T10:38:49;5.07;;;2.60;;
7398;SDS011;3740;50.700;7.184;2022-11-04T10:43:48;2.83;;;1.90;;
7398;SDS011;3740;50.700;7.184;2022-11-04T10:52:09;6.40;;;2.20;;
7398;SDS011;3740;50.700;7.184;2022-11-04T10:54:47;3.30;;;1.90;;
7398;SDS011;3740;50.700;7.184;2022-11-04T10:57:20;4.50;;;2.57;;
7398;SDS011;3740;50.700;7.184;2022-11-04T10:59:55;2.83;;;1.70;;
7398;SDS011;3740;50.700;7.184;2022-11-04T11:02:41;2.80;;;1.83;;
7398;SDS011;3740;50.700;7.184;2022-11-04T11:07:42;3.60;;;2.20;;
7398;SDS011;3740;50.700;7.184;2022-11-04T11:10:15;2.70;;;1.90;;
7398;SDS011;3740;50.700;7.184;2022-11-04T11:12:52;4.57;;;1.90;;
7398;SDS011;3740;50.700;7.184;2022-11-04T11:17:58;2.30;;;1.60;;
7398;SDS011;3740;50.700;7.184;2022-11-04T11:20:48;3.03;;;1.80;;
7398;SDS011;3740;50.700;7.184;2022-11-04T11:26:07;3.08;;;1.65;;
7398;SDS011;3740;50.700;7.184;2022-11-04T11:28:35;4.15;;;2.08;;
7398;SDS011;3740;50.700;7.184;2022-11-04T11:31:07;3.65;;;1.60;;
7398;SDS011;3740;50.700;7.184;2022-11-04T11:33:50;2.40;;;1.67;;
7398;SDS011;3740;50.700;7.184;2022-11-04T11:36:40;3.25;;;1.83;;
7398;SDS011;3740;50.700;7.184;2022-11-04T11:44:29;3.60;;;2.03;;
7398;SDS011;3740;50.700;7.184;2022-11-04T11:47:42;3.10;;;1.85;;
7398;SDS011;3740;50.700;7.184;2022-11-04T11:52:42;3.05;;;1.60;;
7398;SDS011;3740;50.700;7.184;2022-11-04T11:55:16;3.70;;;1.92;;
7398;SDS011;3740;50.700;7.184;2022-11-04T12:00:30;2.70;;;1.70;;
7398;SDS011;3740;50.700;7.184;2022-11-04T12:09:14;2.33;;;1.58;;
7398;SDS011;3740;50.700;7.184;2022-11-04T12:14:45;2.67;;;1.77;;
7398;SDS011;3740;50.700;7.184;2022-11-04T12:17:21;3.65;;;2.13;;
7398;SDS011;3740;50.700;7.184;2022-11-04T12:25:46;6.57;;;2.90;;
7398;SDS011;3740;50.700;7.184;2022-11-04T12:31:39;3.70;;;2.30;;
7398;SDS011;3740;50.700;7.184;2022-11-04T12:34:38;2.80;;;2.00;;
7398;SDS011;3740;50.700;7.184;2022-11-04T12:40:41;4.10;;;2.63;;
7398;SDS011;3740;50.700;7.184;2022-11-04T12:43:32;4.63;;;2.27;;
7398;SDS011;3740;50.700;7.184;2022-11-04T12:46:35;5.40;;;2.30;;
7398;SDS011;3740;50.700;7.184;2022-11-04T12:54:49;4.33;;;2.13;;
7398;SDS011;3740;50.700;7.184;2022-11-04T13:02:41;3.80;;;2.27;;
7398;SDS011;3740;50.700;7.184;2022-11-04T13:05:29;3.53;;;2.30;;
7398;SDS011;3740;50.700;7.184;2022-11-04T13:11:07;5.27;;;3.00;;
7398;SDS011;3740;50.700;7.184;2022-11-04T13:14:02;5.93;;;2.50;;
7398;SDS011;3740;50.700;7.184;2022-11-04T13:16:43;4.20;;;2.63;;
7398;SDS011;3740;50.700;7.184;2022-11-04T13:19:30;3.53;;;2.63;;
7398;SDS011;3740;50.700;7.184;2022-11-04T13:22:06;4.10;;;2.30;;
7398;SDS011;3740;50.700;7.184;2022-11-04T13:24:37;3.60;;;2.37;;
7398;SDS011;3740;50.700;7.184;2022-11-04T13:27:12;4.43;;;2.87;;
7398;SDS011;3740;50.700;7.184;2022-11-04T13:29:45;4.17;;;2.63;;
7398;SDS011;3740;50.700;7.184;2022-11-04T13:32:16;5.93;;;2.70;;
7398;SDS011;3740;50.700;7.184;2022-11-04T13:35:07;2.47;;;2.20;;
7398;SDS011;3740;50.700;7.184;2022-11-04T13:38:01;4.23;;;2.20;;
7398;SDS011;3740;50.700;7.184;2022-11-04T13:40:40;2.63;;;2.00;;
7398;SDS011;3740;50.700;7.184;2022-11-04T13:43:26;4.90;;;2.70;;
7398;SDS011;3740;50.700;7.184;2022-11-04T13:48:39;3.23;;;2.07;;
7398;SDS011;3740;50.700;7.184;2022-11-04T13:51:34;2.87;;;1.97;;
7398;SDS011;3740;50.700;7.184;2022-11-04T13:54:27;3.23;;;2.40;;
7398;SDS011;3740;50.700;7.184;2022-11-04T13:59:33;2.23;;;1.93;;
7398;SDS011;3740;50.700;7.184;2022-11-04T14:04:43;2.30;;;1.93;;
7398;SDS011;3740;50.700;7.184;2022-11-04T14:07:10;4.00;;;2.43;;
7398;SDS011;3740;50.700;7.184;2022-11-04T14:20:09;2.70;;;2.40;;
7398;SDS011;3740;50.700;7.184;2022-11-04T14:22:47;4.30;;;2.60;;
7398;SDS011;3740;50.700;7.184;2022-11-04T14:25:22;3.10;;;2.50;;
7398;SDS011;3740;50.700;7.184;2022-11-04T14:27:51;4.27;;;2.20;;
7398;SDS011;3740;50.700;7.184;2022-11-04T14:31:01;2.93;;;2.13;;
7398;SDS011;3740;50.700;7.184;2022-11-04T14:36:12;2.20;;;2.00;;
7398;SDS011;3740;50.700;7.184;2022-11-04T14:38:51;2.10;;;1.70;;
7398;SDS011;3740;50.700;7.184;2022-11-04T14:47:18;2.47;;;1.90;;
7398;SDS011;3740;50.700;7.184;2022-11-04T14:50:03;2.33;;;1.73;;
7398;SDS011;3740;50.700;7.184;2022-11-04T14:55:22;2.90;;;2.00;;
7398;SDS011;3740;50.700;7.184;2022-11-04T14:57:58;2.67;;;2.17;;
7398;SDS011;3740;50.700;7.184;2022-11-04T15:05:47;3.63;;;2.30;;
7398;SDS011;3740;50.700;7.184;2022-11-04T15:08:30;5.03;;;2.77;;
7398;SDS011;3740;50.700;7.184;2022-11-04T15:11:00;3.27;;;2.80;;
7398;SDS011;3740;50.700;7.184;2022-11-04T15:13:33;3.73;;;2.67;;
7398;SDS011;3740;50.700;7.184;2022-11-04T15:16:02;2.97;;;2.53;;
7398;SDS011;3740;50.700;7.184;2022-11-04T15:18:35;3.50;;;2.30;;
7398;SDS011;3740;50.700;7.184;2022-11-04T15:21:02;3.33;;;2.43;;
7398;SDS011;3740;50.700;7.184;2022-11-04T15:23:32;3.97;;;2.67;;
7398;SDS011;3740;50.700;7.184;2022-11-04T15:26:00;4.47;;;3.30;;
7398;SDS011;3740;50.700;7.184;2022-11-04T15:28:38;4.93;;;3.30;;
7398;SDS011;3740;50.700;7.184;2022-11-04T15:33:40;3.70;;;3.40;;
7398;SDS011;3740;50.700;7.184;2022-11-04T15:36:13;4.37;;;3.17;;
7398;SDS011;3740;50.700;7.184;2022-11-04T15:38:43;5.33;;;4.07;;
7398;SDS011;3740;50.700;7.184;2022-11-04T15:41:12;4.07;;;3.50;;
7398;SDS011;3740;50.700;7.184;2022-11-04T15:43:57;4.47;;;3.00;;
7398;SDS011;3740;50.700;7.184;2022-11-04T15:46:25;2.67;;;2.47;;
7398;SDS011;3740;50.700;7.184;2022-11-04T15:49:03;2.50;;;2.30;;
7398;SDS011;3740;50.700;7.184;2022-11-04T15:51:35;2.40;;;2.17;;
7398;SDS011;3740;50.700;7.184;2022-11-04T15:54:04;3.13;;;2.73;;
7398;SDS011;3740;50.700;7.184;2022-11-04T15:56:45;3.90;;;2.80;;
7398;SDS011;3740;50.700;7.184;2022-11-04T15:59:21;4.20;;;3.60;;
7398;SDS011;3740;50.700;7.184;2022-11-04T16:01:52;6.60;;;5.90;;
7398;SDS011;3740;50.700;7.184;2022-11-04T16:04:22;6.00;;;4.77;;
7398;SDS011;3740;50.700;7.184;2022-11-04T16:07:03;4.97;;;4.47;;
7398;SDS011;3740;50.700;7.184;2022-11-04T16:09:53;4.30;;;3.90;;
7398;SDS011;3740;50.700;7.184;2022-11-04T16:14:55;4.37;;;3.97;;
7398;SDS011;3740;50.700;7.184;2022-11-04T16:17:22;3.50;;;3.17;;
7398;SDS011;3740;50.700;7.184;2022-11-04T16:19:55;3.57;;;3.23;;
7398;SDS011;3740;50.700;7.184;2022-11-04T16:22:32;3.37;;;2.73;;
7398;SDS011;3740;50.700;7.184;2022-11-04T16:25:05;6.13;;;5.53;;
7398;SDS011;3740;50.700;7.184;2022-11-04T16:27:35;5.83;;;5.20;;
7398;SDS011;3740;50.700;7.184;2022-11-04T16:37:45;2.70;;;2.10;;
7398;SDS011;3740;50.700;7.184;2022-11-04T16:40:11;2.70;;;2.50;;
7398;SDS011;3740;50.700;7.184;2022-11-04T16:42:39;2.67;;;2.20;;
7398;SDS011;3740;50.700;7.184;2022-11-04T16:45:06;3.90;;;2.60;;
7398;SDS011;3740;50.700;7.184;2022-11-04T16:47:40;2.90;;;2.43;;
7398;SDS011;3740;50.700;7.184;2022-11-04T16:50:10;2.70;;;2.28;;
7398;SDS011;3740;50.700;7.184;2022-11-04T16:52:38;2.30;;;2.10;;
7398;SDS011;3740;50.700;7.184;2022-11-04T16:55:04;2.73;;;2.20;;
7398;SDS011;3740;50.700;7.184;2022-11-04T16:57:31;2.50;;;2.30;;
7398;SDS011;3740;50.700;7.184;2022-11-04T16:59:57;2.90;;;2.50;;
7398;SDS011;3740;50.700;7.184;2022-11-04T17:02:26;2.80;;;2.60;;
7398;SDS011;3740;50.700;7.184;2022-11-04T17:04:58;3.43;;;2.47;;
7398;SDS011;3740;50.700;7.184;2022-11-04T17:07:24;3.03;;;2.37;;
7398;SDS011;3740;50.700;7.184;2022-11-04T17:09:50;2.97;;;2.67;;
7398;SDS011;3740;50.700;7.184;2022-11-04T17:12:15;3.17;;;2.87;;
7398;SDS011;3740;50.700;7.184;2022-11-04T17:14:41;2.77;;;2.37;;
7398;SDS011;3740;50.700;7.184;2022-11-04T17:17:06;3.07;;;2.80;;
7398;SDS011;3740;50.700;7.184;2022-11-04T17:19:33;3.57;;;3.00;;
7398;SDS011;3740;50.700;7.184;2022-11-04T17:21:59;3.87;;;3.13;;
7398;SDS011;3740;50.700;7.184;2022-11-04T17:24:27;4.03;;;3.37;;
7398;SDS011;3740;50.700;7.184;2022-11-04T17:26:53;4.27;;;3.33;;
7398;SDS011;3740;50.700;7.184;2022-11-04T17:29:18;4.50;;;3.50;;
7398;SDS011;3740;50.700;7.184;2022-11-04T17:31:44;3.27;;;2.57;;
7398;SDS011;3740;50.700;7.184;2022-11-04T17:34:10;2.60;;;2.40;;
7398;SDS011;3740;50.700;7.184;2022-11-04T17:36:35;2.60;;;2.40;;
7398;SDS011;3740;50.700;7.184;2022-11-04T17:39:01;2.77;;;2.20;;
7398;SDS011;3740;50.700;7.184;2022-11-04T17:41:27;3.17;;;2.87;;
7398;SDS011;3740;50.700;7.184;2022-11-04T17:44:11;3.67;;;3.03;;
7398;SDS011;3740;50.700;7.184;2022-11-04T17:46:37;4.00;;;3.70;;
7398;SDS011;3740;50.700;7.184;2022-11-04T17:51:30;3.57;;;3.23;;
7398;SDS011;3740;50.700;7.184;2022-11-04T17:53:56;3.63;;;3.33;;
7398;SDS011;3740;50.700;7.184;2022-11-04T17:56:22;3.50;;;3.20;;
7398;SDS011;3740;50.700;7.184;2022-11-04T17:58:51;4.57;;;4.03;;
7398;SDS011;3740;50.700;7.184;2022-11-04T18:01:18;5.00;;;4.50;;
7398;SDS011;3740;50.700;7.184;2022-11-04T18:03:45;7.13;;;6.50;;
7398;SDS011;3740;50.700;7.184;2022-11-04T18:06:11;4.80;;;4.30;;
7398;SDS011;3740;50.700;7.184;2022-11-04T18:08:37;8.20;;;7.40;;
7398;SDS011;3740;50.700;7.184;2022-11-04T18:11:04;7.53;;;6.83;;
7398;SDS011;3740;50.700;7.184;2022-11-04T18:13:32;7.03;;;6.43;;